Time;durP1;ratioP1;P1;durP2;ratioP2;P2;SDS_P1;SDS_P2;PMS_P1;PMS_P2;Temp;Humidity;BMP_temperature;BMP_pressure;BME280_temperature;BME280_humidity;BME280_pressure;Samples;Min_cycle;Max_cycle;Signal;HPM_P1;HPM_P2
2023/12/12 00:01:54;;;;;;;1.33;1.33;;;-0.60;99.90;1.20;96142.00;;;;5013478;28;20436;-71
2023/12/12 00:04:44;;;;;;;1.17;1.17;;;-0.70;99.90;1.00;96144.00;;;;5015099;28;20480;-70
2023/12/12 00:07:33;;;;;;;0.70;0.70;;;-0.70;99.90;1.10;96141.00;;;;5015311;28;20455;-70
2023/12/12 00:10:22;;;;;;;1.10;1.10;;;-0.70;99.90;1.20;96147.00;;;;5006608;28;20424;-70
2023/12/12 00:13:11;;;;;;;1.00;1.00;;;-0.80;99.90;1.10;96149.00;;;;5018985;28;20459;-70
2023/12/12 00:16:00;;;;;;;0.83;0.83;;;-0.80;99.90;0.70;96132.00;;;;5014945;28;20429;-72
2023/12/12 00:18:49;;;;;;;1.37;1.37;;;-0.80;99.90;1.20;96141.00;;;;5015278;28;20816;-70
2023/12/12 00:21:39;;;;;;;1.07;1.07;;;-0.80;99.90;1.20;96149.00;;;;5020068;28;21056;-70
2023/12/12 00:24:28;;;;;;;1.00;1.00;;;-0.70;99.90;1.40;96145.00;;;;5024170;28;20845;-70
2023/12/12 00:27:17;;;;;;;0.90;0.90;;;-0.70;99.90;0.80;96139.00;;;;5017166;28;20436;-70
2023/12/12 00:30:08;;;;;;;0.77;0.77;;;-0.80;99.90;1.20;96155.00;;;;5010908;28;20434;-70
2023/12/12 00:32:57;;;;;;;0.90;0.90;;;-0.80;99.90;1.30;96152.00;;;;5018965;28;20460;-71
2023/12/12 00:35:46;;;;;;;1.50;1.50;;;-0.80;99.90;1.10;96159.00;;;;5011019;28;20433;-70
2023/12/12 00:38:36;;;;;;;1.00;1.00;;;-0.80;99.90;1.30;96147.00;;;;5019630;28;20529;-71
2023/12/12 00:41:33;;;;;;;1.00;1.00;;;-0.80;99.90;0.90;96148.00;;;;5024158;28;20425;-71
2023/12/12 00:44:22;;;;;;;0.80;0.80;;;-0.80;99.90;1.20;96143.00;;;;5015205;28;20471;-71
2023/12/12 00:47:11;;;;;;;0.70;0.70;;;-0.80;99.90;1.30;96157.00;;;;5009020;28;20433;-71
2023/12/12 00:50:00;;;;;;;1.00;1.00;;;-0.80;99.90;1.40;96158.00;;;;5015710;28;20425;-71
2023/12/12 00:52:49;;;;;;;1.07;1.07;;;-0.80;99.90;0.90;96148.00;;;;5010587;28;20446;-71
2023/12/12 00:55:39;;;;;;;0.97;0.97;;;-0.90;99.90;0.90;96141.00;;;;5014605;28;20428;-70
2023/12/12 00:58:28;;;;;;;1.00;1.00;;;-0.90;99.90;0.80;96141.00;;;;5012044;28;20437;-70
2023/12/12 01:01:17;;;;;;;0.80;0.80;;;-0.90;99.90;0.80;96138.00;;;;5015798;28;20972;-70
2023/12/12 01:04:07;;;;;;;1.03;1.03;;;-0.90;99.90;1.20;96159.00;;;;5018793;28;20467;-70
2023/12/12 01:06:56;;;;;;;1.27;1.27;;;-0.90;99.90;1.00;96148.00;;;;5018596;28;20433;-70
2023/12/12 01:09:45;;;;;;;1.00;1.00;;;-0.90;99.90;0.80;96151.00;;;;5016175;28;20428;-71
2023/12/12 01:12:37;;;;;;;1.37;1.37;;;-0.80;99.90;1.10;96143.00;;;;5008302;28;20460;-72
2023/12/12 01:15:26;;;;;;;1.10;1.10;;;-0.70;99.90;1.00;96147.00;;;;5012431;28;20416;-71
2023/12/12 01:18:14;;;;;;;0.90;0.90;;;-0.80;99.90;0.90;96146.00;;;;5016722;28;20945;-70
2023/12/12 01:21:04;;;;;;;1.00;1.00;;;-0.80;99.90;1.10;96163.00;;;;5021727;28;20420;-72
2023/12/12 01:23:54;;;;;;;1.07;1.07;;;-0.80;99.90;1.10;96139.00;;;;5014172;28;20449;-71
2023/12/12 01:26:43;;;;;;;1.37;1.37;;;-0.80;99.90;1.30;96162.00;;;;5015298;28;20433;-71
2023/12/12 01:29:33;;;;;;;1.73;1.63;;;-0.80;99.90;1.20;96154.00;;;;5019383;28;20435;-71
2023/12/12 01:32:22;;;;;;;1.23;1.23;;;-0.70;99.90;1.20;96167.00;;;;5015117;28;20433;-71
2023/12/12 01:35:11;;;;;;;0.90;0.90;;;-0.70;99.90;0.70;96158.00;;;;5007792;28;20433;-71
2023/12/12 01:38:00;;;;;;;1.00;1.00;;;-0.80;99.90;0.50;96152.00;;;;5021856;28;20815;-71
2023/12/12 01:40:49;;;;;;;1.20;1.20;;;-0.90;99.90;0.60;96143.00;;;;5022020;28;20468;-72
2023/12/12 01:43:38;;;;;;;0.70;0.70;;;-0.90;99.90;0.50;96156.00;;;;5006961;28;20819;-72
2023/12/12 01:46:28;;;;;;;0.80;0.80;;;-1.00;99.90;0.60;96155.00;;;;5012910;28;20789;-71
2023/12/12 01:49:18;;;;;;;1.00;1.00;;;-1.00;99.90;0.50;96146.00;;;;5014816;28;20424;-71
2023/12/12 01:52:08;;;;;;;0.80;0.80;;;-1.00;99.90;0.30;96154.00;;;;5016465;28;20888;-70
2023/12/12 01:54:57;;;;;;;0.80;0.80;;;-1.10;99.90;0.60;96153.00;;;;5007166;28;20496;-71
2023/12/12 01:57:46;;;;;;;1.60;1.60;;;-1.10;99.90;0.50;96160.00;;;;5014065;28;20440;-69
2023/12/12 02:00:36;;;;;;;1.03;1.03;;;-1.10;99.90;1.00;96159.00;;;;5011489;28;20448;-70
2023/12/12 02:03:28;;;;;;;1.10;1.10;;;-1.10;99.90;1.00;96161.00;;;;5012684;28;20539;-69
2023/12/12 02:06:22;;;;;;;1.00;1.00;;;-1.00;99.90;0.60;96153.00;;;;5013887;28;20469;-70
2023/12/12 02:09:11;;;;;;;1.00;1.00;;;-1.00;99.90;0.30;96169.00;;;;5008207;28;20429;-70
2023/12/12 02:12:01;;;;;;;0.93;0.93;;;-1.00;99.90;1.20;96171.00;;;;5011304;28;20428;-71
2023/12/12 02:14:50;;;;;;;1.30;1.30;;;-0.90;99.90;1.30;96156.00;;;;5014511;28;21041;-70
2023/12/12 02:17:39;;;;;;;1.03;1.03;;;-0.90;99.90;1.40;96168.00;;;;5006881;28;20429;-70
2023/12/12 02:20:29;;;;;;;1.10;1.10;;;-0.80;99.90;1.40;96182.00;;;;5014391;28;20433;-71
2023/12/12 02:23:19;;;;;;;1.17;1.17;;;-0.70;99.90;1.20;96185.00;;;;5005062;28;20449;-70
2023/12/12 02:26:08;;;;;;;0.90;0.90;;;-0.70;99.90;1.50;96171.00;;;;5011341;28;20467;-70
2023/12/12 02:28:57;;;;;;;1.20;1.20;;;-0.70;99.90;1.10;96183.00;;;;5009028;28;20433;-70
2023/12/12 02:31:46;;;;;;;1.57;1.47;;;-0.70;99.90;1.50;96185.00;;;;5009525;28;20811;-70
2023/12/12 02:34:35;;;;;;;1.30;1.20;;;-0.60;99.90;1.20;96186.00;;;;5015725;28;20467;-70
2023/12/12 02:37:24;;;;;;;1.13;1.13;;;-0.70;99.90;1.40;96189.00;;;;5009021;28;20807;-71
2023/12/12 02:40:14;;;;;;;0.67;0.67;;;-0.60;99.90;1.30;96202.00;;;;5014613;28;20424;-70
2023/12/12 02:43:03;;;;;;;1.00;1.00;;;-0.60;99.90;1.20;96201.00;;;;5010000;28;20445;-70
2023/12/12 02:45:52;;;;;;;1.30;1.30;;;-0.60;99.90;0.80;96183.00;;;;5018637;28;20468;-70
2023/12/12 02:48:41;;;;;;;1.13;1.13;;;-0.70;99.90;0.80;96205.00;;;;5019233;28;20439;-70
2023/12/12 02:51:30;;;;;;;1.13;1.13;;;-0.80;99.90;1.10;96211.00;;;;5014236;28;20817;-71
2023/12/12 02:54:19;;;;;;;0.90;0.90;;;-0.80;99.90;0.90;96216.00;;;;5017974;28;20451;-70
2023/12/12 02:57:09;;;;;;;1.10;1.10;;;-0.80;99.90;1.10;96198.00;;;;5012569;28;20777;-70
2023/12/12 02:59:58;;;;;;;0.60;0.60;;;-0.80;99.90;1.00;96207.00;;;;5019432;28;20440;-69
2023/12/12 03:02:47;;;;;;;1.40;1.40;;;-0.80;99.90;0.30;96217.00;;;;5007407;28;21013;-71
2023/12/12 03:05:36;;;;;;;1.10;1.10;;;-0.90;99.90;0.90;96230.00;;;;5006146;28;20461;-71
2023/12/12 03:08:24;;;;;;;1.03;1.03;;;-0.90;99.90;1.20;96223.00;;;;5009096;28;20429;-71
2023/12/12 03:11:13;;;;;;;1.00;1.00;;;-0.90;99.90;1.30;96237.00;;;;5019308;28;20439;-71
2023/12/12 03:14:04;;;;;;;0.70;0.70;;;-0.90;99.90;1.20;96239.00;;;;5013655;28;20441;-71
2023/12/12 03:16:52;;;;;;;1.20;1.20;;;-0.80;99.90;1.00;96232.00;;;;5011518;28;20421;-72
2023/12/12 03:19:41;;;;;;;0.77;0.77;;;-0.90;99.90;1.20;96245.00;;;;5019407;28;20431;-70
2023/12/12 03:22:30;;;;;;;1.13;1.13;;;-0.90;99.90;0.80;96234.00;;;;5000430;28;20465;-70
2023/12/12 03:25:19;;;;;;;1.00;1.00;;;-0.90;99.90;1.00;96233.00;;;;5010715;28;20468;-71
2023/12/12 03:28:08;;;;;;;0.87;0.87;;;-0.90;99.90;0.00;96218.00;;;;5011581;28;20436;-71
2023/12/12 03:30:58;;;;;;;0.83;0.83;;;-1.00;99.90;0.00;96216.00;;;;5008009;28;20527;-70
2023/12/12 03:33:47;;;;;;;1.40;1.40;;;-1.20;99.90;0.50;96234.00;;;;5014695;28;20519;-71
2023/12/12 03:36:36;;;;;;;1.00;1.00;;;-1.20;99.90;0.90;96239.00;;;;5011733;28;20425;-71
2023/12/12 03:39:25;;;;;;;1.17;1.17;;;-1.10;99.90;0.90;96238.00;;;;5011989;28;20441;-71
2023/12/12 03:42:14;;;;;;;0.90;0.90;;;-1.10;99.90;0.80;96236.00;;;;5015933;28;20420;-71
2023/12/12 03:45:03;;;;;;;0.63;0.63;;;-1.10;99.90;1.00;96228.00;;;;5014686;28;20429;-71
2023/12/12 03:47:53;;;;;;;1.20;1.20;;;-1.00;99.90;0.80;96237.00;;;;5021173;28;20433;-71
2023/12/12 03:50:42;;;;;;;1.23;1.20;;;-1.00;99.90;0.90;96245.00;;;;5021853;28;20428;-71
2023/12/12 03:53:31;;;;;;;1.00;1.00;;;-1.00;99.90;0.70;96239.00;;;;5015453;28;20829;-71
2023/12/12 03:56:20;;;;;;;0.80;0.80;;;-1.10;99.90;0.60;96238.00;;;;5017342;28;20428;-71
2023/12/12 03:59:09;;;;;;;0.67;0.67;;;-1.10;99.90;0.60;96254.00;;;;5015222;28;20416;-70
2023/12/12 04:01:58;;;;;;;1.20;1.20;;;-1.10;99.90;0.60;96237.00;;;;5022491;28;20431;-70
2023/12/12 04:04:48;;;;;;;1.33;1.33;;;-1.10;99.90;0.90;96255.00;;;;5014677;28;20421;-70
2023/12/12 04:07:37;;;;;;;0.80;0.80;;;-1.10;99.90;0.70;96234.00;;;;5015342;28;20429;-70
2023/12/12 04:10:26;;;;;;;1.10;1.10;;;-1.10;99.90;0.60;96246.00;;;;5006474;28;20936;-70
2023/12/12 04:13:15;;;;;;;0.90;0.90;;;-1.20;99.90;0.70;96250.00;;;;5011171;28;20448;-69
2023/12/12 04:16:05;;;;;;;1.00;1.00;;;-1.20;99.90;0.20;96252.00;;;;5014047;28;20421;-70
2023/12/12 04:18:54;;;;;;;0.80;0.80;;;-1.30;99.90;0.10;96253.00;;;;5019311;28;20424;-69
2023/12/12 04:21:45;;;;;;;1.40;1.37;;;-1.30;99.90;0.10;96263.00;;;;5018901;28;20433;-70
2023/12/12 04:24:34;;;;;;;0.90;0.90;;;-1.40;99.90;0.60;96260.00;;;;5023445;28;20448;-69
2023/12/12 04:27:23;;;;;;;1.00;1.00;;;-1.30;99.90;0.20;96258.00;;;;5011740;28;20842;-70
2023/12/12 04:30:12;;;;;;;1.00;1.00;;;-1.40;99.90;0.80;96261.00;;;;5008950;28;20425;-69
2023/12/12 04:33:01;;;;;;;0.90;0.90;;;-1.30;99.90;0.90;96269.00;;;;5012172;28;20484;-70
2023/12/12 04:35:50;;;;;;;1.10;1.10;;;-1.20;99.90;0.80;96273.00;;;;5011535;28;20437;-70
2023/12/12 04:38:40;;;;;;;0.90;0.90;;;-1.20;99.90;0.50;96262.00;;;;5012550;28;20984;-69
2023/12/12 04:41:29;;;;;;;0.87;0.87;;;-1.20;99.90;0.80;96263.00;;;;5016660;28;20437;-70
2023/12/12 04:44:18;;;;;;;0.97;0.97;;;-1.20;99.90;0.90;96269.00;;;;5008272;28;20456;-69
2023/12/12 04:47:07;;;;;;;0.90;0.90;;;-1.20;99.90;0.50;96272.00;;;;5011759;28;21006;-70
2023/12/12 04:49:56;;;;;;;1.20;1.20;;;-1.10;99.90;0.50;96260.00;;;;5016579;28;20425;-70
2023/12/12 04:52:45;;;;;;;1.43;1.43;;;-1.20;99.90;0.40;96262.00;;;;5010320;28;20456;-70
2023/12/12 04:55:35;;;;;;;1.00;1.00;;;-1.30;99.90;-0.10;96256.00;;;;5010731;28;20823;-69
2023/12/12 04:58:24;;;;;;;0.90;0.90;;;-1.30;99.90;0.00;96264.00;;;;5006923;28;20422;-70
2023/12/12 05:01:16;;;;;;;1.20;1.20;;;-1.40;99.90;0.50;96266.00;;;;5014153;28;20417;-70
2023/12/12 05:04:06;;;;;;;1.00;1.00;;;-1.40;99.90;0.10;96263.00;;;;5010566;28;20448;-69
2023/12/12 05:06:55;;;;;;;1.27;1.27;;;-1.40;99.90;0.20;96256.00;;;;5017873;28;20824;-70
2023/12/12 05:09:45;;;;;;;1.33;1.33;;;-1.40;99.90;0.70;96274.00;;;;5015666;28;20812;-70
2023/12/12 05:12:35;;;;;;;0.90;0.90;;;-1.30;99.90;0.60;96257.00;;;;5011833;28;20472;-70
2023/12/12 05:15:24;;;;;;;0.70;0.70;;;-1.30;99.90;0.20;96266.00;;;;5007166;28;20442;-71
2023/12/12 05:18:13;;;;;;;0.90;0.90;;;-1.20;99.90;0.60;96271.00;;;;5006659;28;20417;-70
2023/12/12 05:21:02;;;;;;;1.07;1.07;;;-1.20;99.90;0.70;96271.00;;;;5013060;28;20463;-70
2023/12/12 05:23:51;;;;;;;1.30;1.30;;;-1.20;99.90;0.70;96280.00;;;;5014484;28;20452;-70
2023/12/12 05:26:40;;;;;;;0.80;0.80;;;-1.20;99.90;0.70;96294.00;;;;5019859;28;20471;-70
2023/12/12 05:29:30;;;;;;;1.20;1.20;;;-1.20;99.90;0.80;96300.00;;;;5007610;28;20426;-70
2023/12/12 05:32:19;;;;;;;1.17;1.17;;;-1.10;99.90;0.70;96306.00;;;;5015086;28;20824;-70
2023/12/12 05:35:09;;;;;;;0.93;0.93;;;-1.10;99.90;0.80;96308.00;;;;5008320;28;20455;-68
2023/12/12 05:37:58;;;;;;;1.13;1.13;;;-1.10;99.90;0.80;96300.00;;;;5015966;28;20429;-67
2023/12/12 05:40:46;;;;;;;1.37;1.37;;;-1.00;99.90;1.10;96325.00;;;;5009046;28;20452;-69
2023/12/12 05:43:35;;;;;;;1.00;1.00;;;-1.00;99.90;1.40;96317.00;;;;5004506;28;20557;-67
2023/12/12 05:46:25;;;;;;;0.77;0.77;;;-0.90;99.90;1.00;96305.00;;;;5012251;28;20465;-68
2023/12/12 05:49:14;;;;;;;1.17;1.17;;;-0.80;99.90;1.20;96302.00;;;;5018504;28;20424;-68
2023/12/12 05:52:05;;;;;;;0.93;0.93;;;-0.80;99.90;1.30;96307.00;;;;5014322;28;20440;-68
2023/12/12 05:54:54;;;;;;;1.77;1.67;;;-0.70;99.90;1.20;96298.00;;;;5012701;28;20441;-68
2023/12/12 05:57:42;;;;;;;0.90;0.90;;;-0.80;99.90;1.30;96302.00;;;;5001379;28;20422;-68
2023/12/12 06:00:31;;;;;;;1.03;1.03;;;-0.70;99.90;1.10;96298.00;;;;5012788;28;20446;-68
2023/12/12 06:03:23;;;;;;;0.80;0.80;;;-0.80;99.90;0.40;96309.00;;;;5011870;28;20853;-68
2023/12/12 06:06:12;;;;;;;1.10;1.10;;;-0.80;99.90;-0.10;96302.00;;;;5015182;28;20440;-68
2023/12/12 06:09:01;;;;;;;0.90;0.90;;;-1.00;99.90;0.50;96317.00;;;;5016652;28;20442;-68
2023/12/12 06:11:50;;;;;;;1.43;1.43;;;-1.10;99.90;1.20;96321.00;;;;4997496;28;20429;-68
2023/12/12 06:14:39;;;;;;;1.07;1.07;;;-0.90;99.90;1.30;96312.00;;;;5012886;28;20448;-68
2023/12/12 06:17:28;;;;;;;1.00;1.00;;;-0.80;99.90;1.00;96317.00;;;;4998455;28;20446;-68
2023/12/12 06:20:18;;;;;;;1.00;1.00;;;-0.80;99.90;1.00;96322.00;;;;5010893;28;20429;-67
2023/12/12 06:23:08;;;;;;;0.97;0.97;;;-0.80;99.90;1.40;96332.00;;;;5007852;28;20469;-68
2023/12/12 06:25:57;;;;;;;1.20;1.20;;;-0.80;99.90;1.50;96319.00;;;;5008047;28;20449;-67
2023/12/12 06:28:46;;;;;;;1.83;1.73;;;-0.70;99.90;1.50;96319.00;;;;5012268;28;20473;-68
2023/12/12 06:31:35;;;;;;;1.10;1.10;;;-0.60;99.90;0.80;96312.00;;;;5002247;28;20441;-69
2023/12/12 06:34:24;;;;;;;1.63;1.53;;;-0.70;99.90;1.00;96319.00;;;;5006154;28;20467;-68
2023/12/12 06:37:14;;;;;;;1.03;1.03;;;-0.80;99.90;1.40;96333.00;;;;5004582;28;20988;-68
2023/12/12 06:40:04;;;;;;;0.80;0.80;;;-0.70;99.90;1.20;96333.00;;;;5004853;28;20471;-69
2023/12/12 06:42:52;;;;;;;1.90;1.80;;;-0.70;99.90;1.00;96330.00;;;;5002822;28;20507;-68
2023/12/12 06:45:41;;;;;;;1.30;1.30;;;-0.70;99.90;1.10;96331.00;;;;5004987;28;20448;-68
2023/12/12 06:48:30;;;;;;;1.50;1.40;;;-0.70;99.90;1.20;96333.00;;;;5006388;28;20523;-68
2023/12/12 06:51:19;;;;;;;1.80;1.70;;;-0.70;99.90;1.60;96338.00;;;;5001519;28;20450;-68
2023/12/12 06:54:09;;;;;;;1.03;1.03;;;-0.50;99.90;1.80;96336.00;;;;5008192;28;20457;-68
2023/12/12 06:56:58;;;;;;;2.13;2.03;;;-0.40;99.90;1.90;96333.00;;;;5003102;28;20456;-68
2023/12/12 06:59:47;;;;;;;2.67;2.57;;;-0.40;99.90;1.80;96329.00;;;;5004868;28;20436;-68
2023/12/12 07:02:36;;;;;;;1.60;1.50;;;-0.30;99.90;1.60;96321.00;;;;5005750;28;20464;-68
2023/12/12 07:05:25;;;;;;;1.00;1.00;;;-0.30;99.90;1.50;96324.00;;;;5006180;28;20968;-69
2023/12/12 07:08:14;;;;;;;0.90;0.90;;;-0.30;99.90;1.20;96322.00;;;;5001280;28;20471;-68
2023/12/12 07:11:05;;;;;;;1.63;1.53;;;-0.30;99.90;1.50;96313.00;;;;4999741;28;20445;-68
2023/12/12 07:13:53;;;;;;;1.63;1.53;;;-0.30;99.90;1.90;96321.00;;;;5008613;28;20453;-68
2023/12/12 07:16:42;;;;;;;1.10;1.10;;;-0.20;99.90;2.20;96324.00;;;;5005637;28;21013;-67
2023/12/12 07:19:31;;;;;;;1.53;1.43;;;0.00;99.90;2.20;96320.00;;;;5016549;28;20495;-68
2023/12/12 07:22:21;;;;;;;1.10;1.10;;;0.10;99.90;2.20;96333.00;;;;5008922;28;20449;-67
2023/12/12 07:25:10;;;;;;;0.80;0.80;;;0.20;99.90;2.30;96323.00;;;;5005807;28;20451;-68
2023/12/12 07:28:00;;;;;;;1.60;1.50;;;0.20;99.90;2.00;96320.00;;;;5009927;28;20461;-69
2023/12/12 07:30:49;;;;;;;1.93;1.83;;;0.20;99.90;2.00;96322.00;;;;5011041;28;20973;-67
2023/12/12 07:33:38;;;;;;;1.70;1.60;;;0.20;99.90;1.90;96332.00;;;;5005884;28;20477;-67
2023/12/12 07:36:27;;;;;;;1.23;1.20;;;0.20;99.90;1.80;96326.00;;;;5004731;28;20449;-69
2023/12/12 07:39:16;;;;;;;1.30;1.20;;;0.20;99.90;1.90;96335.00;;;;5008962;28;20460;-69
2023/12/12 07:42:05;;;;;;;0.77;0.77;;;0.20;99.90;2.30;96322.00;;;;5004188;28;20433;-68
2023/12/12 07:44:55;;;;;;;1.60;1.50;;;0.30;99.90;2.50;96344.00;;;;5004987;28;20977;-68
2023/12/12 07:47:44;;;;;;;0.97;0.97;;;0.30;99.90;2.10;96335.00;;;;5012286;28;20468;-70
2023/12/12 07:50:33;;;;;;;1.20;1.20;;;0.40;99.90;2.60;96345.00;;;;5012740;28;21032;-68
2023/12/12 07:53:22;;;;;;;0.90;0.90;;;0.50;99.90;2.90;96341.00;;;;5007205;28;20452;-68
2023/12/12 07:56:11;;;;;;;1.10;1.10;;;0.70;99.90;2.90;96352.00;;;;5011079;28;20992;-67
2023/12/12 07:59:00;;;;;;;1.47;1.37;;;0.80;99.90;2.70;96352.00;;;;5014088;28;20421;-68
2023/12/12 08:01:50;;;;;;;2.03;1.93;;;0.80;99.90;3.20;96353.00;;;;5006878;28;20935;-68
2023/12/12 08:04:39;;;;;;;1.27;1.17;;;0.90;99.90;2.20;96355.00;;;;5008134;28;20425;-69
2023/12/12 08:07:28;;;;;;;1.10;1.10;;;0.80;99.90;2.20;96360.00;;;;5011892;28;20440;-68
2023/12/12 08:10:18;;;;;;;1.00;1.00;;;0.80;99.90;2.60;96363.00;;;;5020951;28;20424;-68
2023/12/12 08:13:08;;;;;;;0.97;0.97;;;0.80;99.90;2.50;96355.00;;;;5009860;28;20452;-69
2023/12/12 08:15:58;;;;;;;1.63;1.53;;;0.80;99.90;2.40;96361.00;;;;5006401;28;20433;-68
2023/12/12 08:18:48;;;;;;;1.63;1.57;;;0.80;99.90;2.80;96369.00;;;;5006008;28;20425;-68
2023/12/12 08:21:37;;;;;;;1.10;1.10;;;0.90;99.90;2.30;96362.00;;;;5012676;28;20967;-68
2023/12/12 08:24:26;;;;;;;1.17;1.13;;;0.80;99.90;2.50;96381.00;;;;5015089;28;20449;-67
2023/12/12 08:27:14;;;;;;;1.10;1.10;;;0.80;99.90;2.90;96397.00;;;;5020846;28;20785;-68
2023/12/12 08:30:05;;;;;;;1.10;1.10;;;0.90;99.90;3.10;96378.00;;;;5007310;28;20432;-68
2023/12/12 08:32:54;;;;;;;1.80;1.70;;;0.90;99.90;3.60;96365.00;;;;5008382;28;20467;-69
2023/12/12 08:35:44;;;;;;;1.30;1.20;;;1.00;99.90;3.30;96362.00;;;;5014341;28;20432;-67
2023/12/12 08:38:33;;;;;;;1.10;1.10;;;1.20;99.90;3.00;96364.00;;;;5011022;28;20421;-69
2023/12/12 08:41:22;;;;;;;0.90;0.90;;;1.20;99.90;2.70;96368.00;;;;5016231;28;20431;-68
2023/12/12 08:44:11;;;;;;;1.07;1.03;;;1.10;99.90;2.40;96364.00;;;;5006872;28;20706;-67
2023/12/12 08:47:00;;;;;;;2.00;1.90;;;0.90;99.90;2.10;96380.00;;;;5012436;28;20433;-69
2023/12/12 08:49:49;;;;;;;2.00;1.90;;;0.80;99.90;2.20;96372.00;;;;5010258;28;21145;-68
2023/12/12 08:52:39;;;;;;;1.53;1.43;;;0.80;99.90;2.60;96359.00;;;;5015436;28;20447;-68
2023/12/12 08:55:28;;;;;;;1.13;1.13;;;0.80;99.90;2.30;96346.00;;;;5014944;28;20439;-67
2023/12/12 08:58:17;;;;;;;0.93;0.93;;;0.80;99.90;2.80;96354.00;;;;5014643;28;20421;-67
2023/12/12 09:01:06;;;;;;;1.20;1.10;;;0.90;99.90;2.70;96353.00;;;;5018245;28;20949;-67
2023/12/12 09:03:56;;;;;;;1.80;1.70;;;1.00;99.90;2.80;96377.00;;;;5009905;28;20449;-67
2023/12/12 09:06:45;;;;;;;1.17;1.13;;;1.10;99.90;3.00;96368.00;;;;5019672;28;20434;-68
2023/12/12 09:09:35;;;;;;;1.53;1.43;;;1.20;99.90;3.50;96368.00;;;;5008984;28;20952;-68
2023/12/12 09:12:25;;;;;;;2.30;2.10;;;1.40;99.90;3.90;96359.00;;;;5003694;28;20429;-68
2023/12/12 09:15:13;;;;;;;1.13;1.10;;;1.60;99.90;3.60;96351.00;;;;5006216;28;20957;-68
2023/12/12 09:18:02;;;;;;;1.77;1.67;;;1.70;99.90;3.50;96334.00;;;;5010633;28;20448;-68
2023/12/12 09:20:52;;;;;;;2.10;2.00;;;1.70;99.90;3.50;96330.00;;;;5012264;28;20848;-68
2023/12/12 09:23:42;;;;;;;1.50;1.40;;;1.70;99.90;3.40;96331.00;;;;5009660;28;20611;-68
2023/12/12 09:26:32;;;;;;;1.40;1.30;;;1.70;99.90;2.90;96318.00;;;;5016181;28;20424;-69
2023/12/12 09:29:21;;;;;;;0.90;0.90;;;1.60;99.90;2.90;96317.00;;;;5010385;28;20473;-67
2023/12/12 09:32:10;;;;;;;1.00;1.00;;;1.50;99.90;3.00;96311.00;;;;5013532;28;20421;-68
2023/12/12 09:34:59;;;;;;;2.10;2.00;;;1.60;99.90;3.20;96303.00;;;;5018261;28;20425;-68
2023/12/12 09:37:47;;;;;;;1.20;1.13;;;1.50;99.90;3.20;96303.00;;;;5009419;28;20425;-66
2023/12/12 09:40:39;;;;;;;0.80;0.80;;;1.60;99.90;3.50;96292.00;;;;5004409;28;20436;-67
2023/12/12 09:43:30;;;;;;;1.53;1.43;;;1.70;99.90;3.40;96295.00;;;;5011161;28;20470;-68
2023/12/12 09:46:20;;;;;;;1.40;1.30;;;1.80;99.90;3.80;96292.00;;;;5012657;28;20431;-67
2023/12/12 09:49:11;;;;;;;0.90;0.90;;;1.90;99.90;4.20;96285.00;;;;5015516;28;20464;-68
2023/12/12 09:52:02;;;;;;;2.30;2.10;;;2.10;99.90;4.70;96289.00;;;;5010643;28;21374;-68
2023/12/12 09:54:52;;;;;;;1.53;1.43;;;2.30;99.90;5.00;96298.00;;;;5008277;28;20437;-67
2023/12/12 09:57:42;;;;;;;1.43;1.33;;;2.50;99.90;4.70;96290.00;;;;5015362;28;20942;-68
2023/12/12 10:00:32;;;;;;;0.93;0.93;;;2.60;99.90;4.00;96294.00;;;;5018487;28;20194;-68
2023/12/12 10:03:22;;;;;;;1.27;1.17;;;2.50;99.90;4.00;96282.00;;;;5007289;28;20222;-68
2023/12/12 10:06:13;;;;;;;1.63;1.53;;;2.50;99.90;5.00;96293.00;;;;5015662;28;20209;-68
2023/12/12 10:09:02;;;;;;;2.03;1.93;;;2.60;99.90;5.10;96289.00;;;;5017169;28;20610;-68
2023/12/12 10:11:51;;;;;;;2.50;2.30;;;2.70;99.90;5.20;96292.00;;;;5015264;28;20205;-69
2023/12/12 10:14:44;;;;;;;1.30;1.20;;;2.80;99.90;5.20;96292.00;;;;5008443;28;20229;-68
2023/12/12 10:17:39;;;;;;;1.30;1.20;;;2.90;99.90;4.50;96281.00;;;;5011957;28;20209;-67
2023/12/12 10:20:30;;;;;;;1.40;1.30;;;3.00;99.90;4.50;96278.00;;;;5015361;28;20205;-67
2023/12/12 10:23:18;;;;;;;1.33;1.23;;;2.90;99.90;5.00;96292.00;;;;5008730;28;20240;-68
2023/12/12 10:26:07;;;;;;;1.73;1.63;;;3.00;99.90;5.10;96290.00;;;;5013738;28;20205;-68
2023/12/12 10:28:58;;;;;;;2.27;2.07;;;3.00;99.90;5.20;96273.00;;;;5009274;28;20769;-68
2023/12/12 10:31:47;;;;;;;1.40;1.30;;;3.00;99.90;5.50;96264.00;;;;5018705;28;21017;-68
2023/12/12 10:34:38;;;;;;;1.10;1.10;;;3.10;99.90;5.20;96261.00;;;;5016777;28;20225;-67
2023/12/12 10:37:27;;;;;;;1.50;1.40;;;3.20;99.90;5.50;96263.00;;;;5009237;28;20198;-68
2023/12/12 10:40:18;;;;;;;1.30;1.20;;;3.30;99.90;5.60;96264.00;;;;5008351;28;20198;-68
2023/12/12 10:43:09;;;;;;;1.30;1.20;;;3.30;99.90;5.60;96278.00;;;;5004939;28;20229;-67
2023/12/12 10:45:59;;;;;;;1.63;1.53;;;3.40;99.90;5.20;96260.00;;;;5018906;28;20206;-68
2023/12/12 10:48:52;;;;;;;1.70;1.57;;;3.40;99.90;5.80;96265.00;;;;5008109;28;20206;-67
2023/12/12 10:51:45;;;;;;;1.40;1.30;;;3.60;99.90;6.00;96258.00;;;;5013689;28;20299;-68
2023/12/12 10:54:35;;;;;;;1.47;1.33;;;3.80;99.90;6.50;96262.00;;;;5016477;28;20228;-68
2023/12/12 10:57:26;;;;;;;1.30;1.20;;;4.20;99.90;7.00;96255.00;;;;5006130;28;20213;-69
2023/12/12 11:00:19;;;;;;;1.20;1.10;;;4.80;99.90;7.30;96249.00;;;;5015407;28;20662;-68
2023/12/12 11:03:08;;;;;;;1.70;1.40;;;5.30;99.90;7.50;96248.00;;;;5006099;28;20454;-68
2023/12/12 11:05:59;;;;;;;2.67;2.33;;;5.80;99.90;7.50;96239.00;;;;5014262;28;20209;-68
2023/12/12 11:08:49;;;;;;;2.37;1.83;;;6.20;99.90;7.70;96248.00;;;;5014811;28;20206;-69
2023/12/12 11:11:41;;;;;;;1.10;1.00;;;6.70;99.90;7.80;96238.00;;;;5016125;28;20718;-68
2023/12/12 11:14:30;;;;;;;1.33;1.23;;;6.90;99.90;8.10;96240.00;;;;5012500;28;20224;-69
2023/12/12 11:17:20;;;;;;;1.50;1.30;;;6.90;99.90;8.40;96233.00;;;;5004381;28;20206;-69
2023/12/12 11:20:14;;;;;;;1.50;1.30;;;6.90;99.90;8.30;96243.00;;;;5005508;28;20194;-69
2023/12/12 11:23:05;;;;;;;2.70;2.37;;;7.20;99.90;7.80;96228.00;;;;5002684;28;20236;-68
2023/12/12 11:25:56;;;;;;;2.70;2.30;;;7.00;99.90;7.80;96220.00;;;;5005745;28;20211;-69
2023/12/12 11:28:45;;;;;;;1.20;1.10;;;6.60;99.90;7.30;96217.00;;;;5014331;28;20279;-68
2023/12/12 11:31:36;;;;;;;2.43;1.90;;;6.30;99.90;6.70;96214.00;;;;5015070;28;20725;-69
2023/12/12 11:34:25;;;;;;;1.43;1.33;;;5.90;99.90;6.20;96200.00;;;;5009282;28;20244;-68
2023/12/12 11:37:14;;;;;;;1.20;1.10;;;5.50;99.90;5.80;96203.00;;;;5006494;28;20322;-68
2023/12/12 11:40:05;;;;;;;2.47;2.27;;;5.10;99.90;6.20;96213.00;;;;5012105;28;20667;-69
2023/12/12 11:43:02;;;;;;;4.47;3.97;;;4.80;99.90;6.10;96203.00;;;;5003482;28;20222;-68
2023/12/12 11:45:52;;;;;;;3.73;2.83;;;4.70;99.90;5.70;96190.00;;;;5037755;23;20239;-71
2023/12/12 11:48:41;;;;;;;2.60;2.00;;;4.50;99.90;6.40;96190.00;;;;5051454;28;20589;-71
2023/12/12 11:51:46;;;;;;;2.73;2.13;;;4.50;99.90;6.30;96182.00;;;;5048726;28;20201;-71
2023/12/12 11:54:37;;;;;;;2.63;1.90;;;4.50;99.90;6.20;96172.00;;;;5045701;28;20200;-70
2023/12/12 11:57:26;;;;;;;1.53;1.33;;;4.50;99.90;6.50;96177.00;;;;5040419;28;20205;-71
2023/12/12 12:00:20;;;;;;;1.97;1.50;;;4.50;99.90;6.80;96183.00;;;;5029092;28;20201;-71
2023/12/12 12:03:09;;;;;;;2.50;1.90;;;4.60;99.90;7.10;96185.00;;;;5030487;28;20202;-70
2023/12/12 12:05:58;;;;;;;3.60;2.70;;;4.70;99.90;7.10;96187.00;;;;5033793;28;20229;-70
2023/12/12 12:08:49;;;;;;;2.00;1.53;;;4.70;99.90;7.00;96179.00;;;;5034677;28;20237;-69
2023/12/12 12:11:38;;;;;;;1.93;1.50;;;4.80;99.90;6.90;96176.00;;;;5028144;28;20209;-69
2023/12/12 12:14:27;;;;;;;2.37;1.63;;;4.80;99.90;7.00;96166.00;;;;5030696;28;20213;-70
2023/12/12 12:17:18;;;;;;;2.17;1.67;;;4.80;99.90;6.80;96164.00;;;;5034309;28;20204;-71
2023/12/12 12:20:07;;;;;;;1.77;1.40;;;4.80;99.90;6.70;96151.00;;;;5031346;28;20198;-70
2023/12/12 12:22:56;;;;;;;3.93;3.00;;;4.70;99.90;6.20;96146.00;;;;5027761;28;20209;-70
2023/12/12 12:25:45;;;;;;;2.20;1.70;;;4.70;99.90;6.10;96129.00;;;;5032266;28;20594;-69
2023/12/12 12:28:35;;;;;;;0.97;0.87;;;4.60;99.90;5.80;96135.00;;;;5033326;28;20201;-71
2023/12/12 12:31:30;;;;;;;2.33;1.80;;;4.50;99.90;6.50;96141.00;;;;5034192;28;20221;-69
2023/12/12 12:34:21;;;;;;;2.40;1.77;;;4.50;99.90;5.50;96123.00;;;;5039449;28;20194;-70
2023/12/12 12:37:32;;;;;;;1.13;0.93;;;4.40;99.90;6.10;96114.00;;;;5037788;28;20209;-70
2023/12/12 12:40:34;;;;;;;3.50;2.40;;;4.30;99.90;6.60;96117.00;;;;5033195;28;20279;-70
2023/12/12 12:43:23;;;;;;;1.33;1.23;;;4.40;99.90;6.50;96116.00;;;;5028031;28;20215;-70
2023/12/12 12:46:12;;;;;;;2.77;2.07;;;4.50;99.90;6.50;96104.00;;;;5029364;28;20236;-71